Time;durP1;ratioP1;P1;durP2;ratioP2;P2;SDS_P1;SDS_P2;PMS_P1;PMS_P2;Temp;Humidity;BMP_temperature;BMP_pressure;BME280_temperature;BME280_humidity;BME280_pressure;Samples;Min_cycle;Max_cycle;Signal;HPM_P1;HPM_P2
2022/01/12 00:01:15;;;;;;;48.70;17.38;;;-1.50;99.90;;;;;;4962011;29;20031;-91
2022/01/12 00:03:43;;;;;;;48.20;16.40;;;-1.50;99.90;;;;;;4959672;29;20023;-90
2022/01/12 00:06:08;;;;;;;52.22;17.63;;;-1.50;99.90;;;;;;4993779;28;20044;-86
2022/01/12 00:08:34;;;;;;;53.60;17.42;;;-1.50;99.90;;;;;;4980893;28;20035;-85
2022/01/12 00:11:03;;;;;;;50.28;17.63;;;-1.50;99.90;;;;;;4978263;28;20043;-85
2022/01/12 00:13:29;;;;;;;46.58;16.25;;;-1.50;99.90;;;;;;4976312;29;20075;-84
2022/01/12 00:15:55;;;;;;;46.97;16.52;;;-1.50;99.90;;;;;;4958787;29;20046;-88
2022/01/12 00:18:22;;;;;;;49.33;17.50;;;-1.50;99.90;;;;;;4956374;29;20126;-90
2022/01/12 00:20:49;;;;;;;40.42;15.23;;;-1.50;99.90;;;;;;4973173;29;20050;-86
2022/01/12 00:23:16;;;;;;;42.50;16.30;;;-1.50;99.90;;;;;;4991617;28;20030;-85
2022/01/12 00:26:03;;;;;;;46.72;16.88;;;-1.50;99.90;;;;;;4993100;28;20050;-86
2022/01/12 00:34:05;;;;;;;56.53;17.90;;;-1.60;99.90;;;;;;4980558;28;20054;-87
2022/01/12 00:36:31;;;;;;;52.22;16.67;;;-1.60;99.90;;;;;;4982362;28;20019;-84
2022/01/12 00:38:58;;;;;;;52.00;17.83;;;-1.60;99.90;;;;;;4983964;28;20027;-86
2022/01/12 00:41:25;;;;;;;49.13;16.83;;;-1.60;99.90;;;;;;5001216;28;20034;-84
2022/01/12 00:43:58;;;;;;;48.88;17.27;;;-1.60;99.90;;;;;;4999729;28;20034;-86
2022/01/12 00:46:28;;;;;;;49.17;16.40;;;-1.60;99.90;;;;;;5001025;28;20046;-84
2022/01/12 00:48:57;;;;;;;48.28;18.00;;;-1.60;99.90;;;;;;4995170;28;20074;-87
2022/01/12 00:51:27;;;;;;;49.33;16.25;;;-1.60;99.90;;;;;;4994770;28;20034;-86
2022/01/12 00:53:58;;;;;;;53.40;17.50;;;-1.70;99.90;;;;;;4995040;28;20054;-85
2022/01/12 00:56:24;;;;;;;49.88;18.13;;;-1.70;99.90;;;;;;4962757;28;20031;-86
2022/01/12 00:58:50;;;;;;;51.28;18.88;;;-1.70;99.90;;;;;;4991505;28;20094;-88
2022/01/12 01:01:19;;;;;;;50.90;17.38;;;-1.70;99.90;;;;;;4985619;28;20051;-86
2022/01/12 01:03:45;;;;;;;53.13;18.45;;;-1.80;99.90;;;;;;4966920;28;20031;-88
2022/01/12 01:06:12;;;;;;;55.97;19.50;;;-1.80;99.90;;;;;;4988249;28;20114;-87
2022/01/12 01:08:38;;;;;;;52.05;18.08;;;-1.80;99.90;;;;;;4952783;28;20022;-86
2022/01/12 01:11:05;;;;;;;49.28;17.55;;;-1.80;99.90;;;;;;4964864;28;20031;-86
2022/01/12 01:13:42;;;;;;;50.78;18.15;;;-1.80;99.90;;;;;;4968512;28;20565;-86
2022/01/12 01:27:07;;;;;;;57.03;19.98;;;-1.80;99.90;;;;;;4970810;28;20035;-87
2022/01/12 01:29:33;;;;;;;49.38;17.35;;;-1.90;99.90;;;;;;4959442;29;20080;-87
2022/01/12 01:32:01;;;;;;;46.55;17.58;;;-1.90;99.90;;;;;;4955999;28;20123;-87
2022/01/12 01:34:28;;;;;;;48.17;18.40;;;-1.90;99.90;;;;;;4973662;28;20034;-86
2022/01/12 01:36:56;;;;;;;54.75;18.55;;;-2.00;99.90;;;;;;4990922;28;20495;-85
2022/01/12 01:39:27;;;;;;;58.53;19.08;;;-1.90;99.90;;;;;;4995954;28;20031;-83
2022/01/12 01:42:02;;;;;;;51.60;17.70;;;-2.00;99.90;;;;;;4980507;28;20041;-86
2022/01/12 01:55:11;;;;;;;50.92;17.67;;;-2.00;99.90;;;;;;4983815;28;20111;-83
2022/01/12 01:57:39;;;;;;;58.60;18.70;;;-2.00;99.90;;;;;;4984236;28;20015;-82
2022/01/12 02:00:09;;;;;;;56.80;17.63;;;-2.10;99.90;;;;;;4998833;28;20038;-86
2022/01/12 02:02:51;;;;;;;51.75;18.48;;;-2.10;99.90;;;;;;4981872;28;20038;-84
2022/01/12 02:05:17;;;;;;;61.33;18.95;;;-2.10;99.90;;;;;;4977639;28;20035;-85
2022/01/12 02:07:43;;;;;;;57.10;18.65;;;-2.20;99.90;;;;;;4977602;28;20057;-86
2022/01/12 02:10:10;;;;;;;58.42;18.58;;;-2.20;99.90;;;;;;4964572;29;20686;-86
2022/01/12 02:12:46;;;;;;;58.70;20.50;;;-2.20;99.90;;;;;;4985730;28;20049;-87
2022/01/12 02:15:19;;;;;;;53.60;18.33;;;-2.20;99.90;;;;;;4977424;28;20065;-87
2022/01/12 02:40:09;;;;;;;54.42;17.83;;;-2.50;99.90;;;;;;4989949;28;20106;-88
2022/01/12 02:42:38;;;;;;;57.05;18.70;;;-2.50;99.90;;;;;;4950407;28;20035;-90
2022/01/12 02:50:57;;;;;;;49.50;17.55;;;-2.50;99.90;;;;;;4964901;28;20031;-89
2022/01/12 02:53:39;;;;;;;56.38;19.55;;;-2.60;99.90;;;;;;4957376;29;20059;-88
2022/01/12 02:56:08;;;;;;;49.80;19.00;;;-2.60;99.90;;;;;;4961871;29;20027;-89
2022/01/12 02:58:35;;;;;;;58.15;19.17;;;-2.60;99.90;;;;;;4979309;28;20043;-90
2022/01/12 03:03:32;;;;;;;52.55;19.42;;;-2.60;99.90;;;;;;4996477;28;20015;-89
2022/01/12 03:06:02;;;;;;;50.55;17.88;;;-2.60;99.90;;;;;;4967145;28;20039;-91
2022/01/12 03:08:36;;;;;;;51.47;18.70;;;-2.60;99.90;;;;;;5000163;28;20061;-90
2022/01/12 03:11:03;;;;;;;61.72;20.58;;;-2.60;99.90;;;;;;4999932;28;20018;-90
2022/01/12 03:13:29;;;;;;;59.85;18.63;;;-2.70;99.90;;;;;;4983550;28;20019;-91
2022/01/12 03:15:56;;;;;;;64.93;19.27;;;-2.70;99.90;;;;;;4983272;28;20025;-87
2022/01/12 03:18:22;;;;;;;58.55;19.33;;;-2.70;99.90;;;;;;4980822;28;20053;-87
2022/01/12 03:20:49;;;;;;;54.63;18.63;;;-2.80;99.90;;;;;;4969333;28;20054;-88
2022/01/12 03:23:15;;;;;;;56.58;19.67;;;-2.80;99.90;;;;;;4955393;28;20027;-87
2022/01/12 03:25:42;;;;;;;58.15;18.95;;;-2.80;99.90;;;;;;4953018;28;20098;-88
2022/01/12 03:28:08;;;;;;;60.25;20.33;;;-2.80;99.90;;;;;;4966723;28;20021;-88
2022/01/12 03:30:46;;;;;;;59.92;20.70;;;-2.80;99.90;;;;;;4971821;28;20031;-87
2022/01/12 03:33:33;;;;;;;61.90;20.13;;;-2.80;99.90;;;;;;4947972;29;20564;-88
2022/01/12 03:38:43;;;;;;;55.17;18.20;;;-2.90;99.90;;;;;;4964656;29;20023;-87
2022/01/12 03:41:10;;;;;;;64.07;19.40;;;-2.90;99.90;;;;;;4963781;28;20487;-88
2022/01/12 03:43:36;;;;;;;62.28;20.00;;;-2.90;99.90;;;;;;4981438;28;20513;-86
2022/01/12 03:46:02;;;;;;;58.30;20.45;;;-2.90;99.90;;;;;;4975643;28;20035;-89
2022/01/12 03:48:29;;;;;;;67.78;22.17;;;-2.90;99.90;;;;;;4958550;28;20103;-89
2022/01/12 03:50:56;;;;;;;68.38;20.55;;;-3.00;99.90;;;;;;4977297;28;20043;-91
2022/01/12 03:53:23;;;;;;;59.53;18.40;;;-3.00;99.90;;;;;;4965152;28;20031;-89
2022/01/12 03:55:49;;;;;;;61.45;19.27;;;-3.00;99.90;;;;;;4956798;28;20011;-91
2022/01/12 03:58:15;;;;;;;65.30;20.25;;;-3.00;99.90;;;;;;4958283;28;20033;-88
2022/01/12 04:00:41;;;;;;;62.92;21.15;;;-3.10;99.90;;;;;;4967039;28;20026;-88
2022/01/12 04:03:08;;;;;;;63.58;21.40;;;-3.10;99.90;;;;;;4954664;29;20047;-88
2022/01/12 04:08:21;;;;;;;69.65;21.05;;;-3.10;99.90;;;;;;4978508;28;20038;-89
2022/01/12 04:10:51;;;;;;;57.53;20.20;;;-3.10;99.90;;;;;;4953255;28;20042;-89
2022/01/12 04:13:17;;;;;;;65.78;21.27;;;-3.10;99.90;;;;;;4970471;28;20031;-89
2022/01/12 04:15:46;;;;;;;62.97;22.40;;;-3.10;99.90;;;;;;4965783;28;20027;-88
2022/01/12 04:18:12;;;;;;;60.28;20.90;;;-3.20;99.90;;;;;;4966045;28;20022;-88
2022/01/12 04:20:49;;;;;;;64.78;21.80;;;-3.20;99.90;;;;;;4948643;29;20066;-87
2022/01/12 04:23:22;;;;;;;62.90;19.27;;;-3.30;99.90;;;;;;4959268;29;20082;-88
2022/01/12 04:25:51;;;;;;;68.03;20.77;;;-3.30;99.90;;;;;;4955287;28;20054;-88
2022/01/12 04:28:18;;;;;;;57.05;20.00;;;-3.30;99.90;;;;;;4948255;29;20027;-90
2022/01/12 04:30:45;;;;;;;65.38;20.20;;;-3.30;99.90;;;;;;4948366;28;20475;-87
2022/01/12 04:33:11;;;;;;;60.55;19.80;;;-3.30;99.90;;;;;;4967303;28;20031;-87
2022/01/12 04:35:45;;;;;;;63.58;21.98;;;-3.30;99.90;;;;;;4973877;28;20018;-88
2022/01/12 04:38:11;;;;;;;62.58;20.45;;;-3.40;99.90;;;;;;4963582;28;20023;-87
2022/01/12 04:40:37;;;;;;;62.55;21.13;;;-3.40;99.90;;;;;;4979693;28;20019;-90
2022/01/12 04:43:03;;;;;;;64.72;21.65;;;-3.40;99.90;;;;;;4981938;28;20031;-90
2022/01/12 04:50:25;;;;;;;64.22;21.30;;;-3.40;99.90;;;;;;4994882;28;20254;-83
2022/01/12 04:52:52;;;;;;;67.13;20.80;;;-3.40;99.90;;;;;;4994724;28;20023;-83
2022/01/12 04:55:18;;;;;;;63.58;22.00;;;-3.40;99.90;;;;;;4993049;28;20029;-81
2022/01/12 04:57:44;;;;;;;71.53;21.05;;;-3.50;99.90;;;;;;4986522;28;20031;-80
2022/01/12 05:00:15;;;;;;;65.45;20.17;;;-3.50;99.90;;;;;;4976591;28;20058;-84
2022/01/12 05:13:45;;;;;;;62.83;21.20;;;-3.50;99.90;;;;;;4977377;28;20481;-83
2022/01/12 05:16:12;;;;;;;64.13;20.75;;;-3.60;99.90;;;;;;4980403;29;20015;-83
2022/01/12 05:18:43;;;;;;;66.13;21.40;;;-3.50;99.90;;;;;;4980797;28;20055;-81
2022/01/12 05:21:10;;;;;;;64.75;20.15;;;-3.50;99.90;;;;;;4981034;28;20037;-84
2022/01/12 05:23:37;;;;;;;60.25;20.40;;;-3.50;99.90;;;;;;4979972;28;20043;-86
2022/01/12 05:26:03;;;;;;;64.53;20.98;;;-3.50;99.90;;;;;;4977883;29;20067;-83
2022/01/12 05:28:29;;;;;;;63.38;21.23;;;-3.50;99.90;;;;;;4973501;28;20027;-84
2022/01/12 05:31:01;;;;;;;56.97;20.08;;;-3.50;99.90;;;;;;4970729;28;20078;-83
2022/01/12 05:33:28;;;;;;;70.40;21.42;;;-3.50;99.90;;;;;;4973120;28;20027;-84
2022/01/12 05:35:55;;;;;;;66.72;22.05;;;-3.50;99.90;;;;;;4975304;29;20091;-82
2022/01/12 05:38:23;;;;;;;57.83;19.90;;;-3.50;99.90;;;;;;4961737;29;20060;-85
2022/01/12 05:40:55;;;;;;;65.43;20.05;;;-3.50;99.90;;;;;;4969217;28;20039;-85
2022/01/12 05:43:26;;;;;;;59.13;20.33;;;-3.50;99.90;;;;;;4969466;28;20042;-83
2022/01/12 05:45:54;;;;;;;58.17;19.08;;;-3.50;99.90;;;;;;4977458;28;20067;-84
2022/01/12 05:50:49;;;;;;;62.20;19.85;;;-3.60;99.90;;;;;;4977240;28;20038;-82
2022/01/12 05:53:18;;;;;;;57.65;19.77;;;-3.60;99.90;;;;;;4964781;28;20107;-84
2022/01/12 05:55:49;;;;;;;63.25;21.65;;;-3.50;99.90;;;;;;4963066;29;20251;-84
2022/01/12 05:58:15;;;;;;;59.45;20.48;;;-3.50;99.90;;;;;;4963185;28;20043;-84
2022/01/12 06:00:41;;;;;;;63.00;20.48;;;-3.50;99.90;;;;;;4966481;29;20058;-83
2022/01/12 06:03:07;;;;;;;59.95;20.40;;;-3.60;99.90;;;;;;4971070;28;20027;-85
2022/01/12 06:05:34;;;;;;;55.05;19.08;;;-3.50;99.90;;;;;;4972334;29;20027;-84
2022/01/12 06:08:00;;;;;;;67.25;20.27;;;-3.50;99.90;;;;;;4970576;28;20031;-83
2022/01/12 06:10:25;;;;;;;69.97;22.17;;;-3.60;99.90;;;;;;4970370;29;20107;-85
2022/01/12 06:12:53;;;;;;;60.83;20.50;;;-3.50;99.90;;;;;;4964617;29;20031;-83
2022/01/12 06:15:19;;;;;;;64.00;21.08;;;-3.50;99.90;;;;;;4975160;28;20035;-83
2022/01/12 06:17:45;;;;;;;56.50;19.60;;;-3.50;99.90;;;;;;4979055;28;20034;-82
2022/01/12 06:20:11;;;;;;;65.78;19.13;;;-3.50;99.90;;;;;;4978737;28;20031;-82
2022/01/12 06:23:01;;;;;;;62.92;19.88;;;-3.40;99.90;;;;;;4978492;29;20043;-83
2022/01/12 06:25:29;;;;;;;59.92;21.10;;;-3.40;99.90;;;;;;4977779;28;20027;-83
2022/01/12 06:27:58;;;;;;;56.47;19.92;;;-3.40;99.90;;;;;;4975999;28;20027;-84
2022/01/12 06:32:57;;;;;;;63.65;21.00;;;-3.40;99.90;;;;;;4975720;28;20083;-83
2022/01/12 06:35:25;;;;;;;52.53;19.40;;;-3.40;99.90;;;;;;4969225;28;20030;-81
2022/01/12 06:37:52;;;;;;;61.60;19.50;;;-3.30;99.90;;;;;;4979778;28;20027;-83
2022/01/12 06:40:19;;;;;;;53.25;19.33;;;-3.30;99.90;;;;;;4980633;28;20034;-83
2022/01/12 06:42:46;;;;;;;54.13;20.00;;;-3.20;99.90;;;;;;4979723;28;20012;-83
2022/01/12 06:45:15;;;;;;;63.38;21.23;;;-3.20;99.90;;;;;;4980012;28;20059;-83
2022/01/12 06:47:44;;;;;;;53.60;19.92;;;-3.10;99.90;;;;;;4979623;28;20031;-83
2022/01/12 06:50:11;;;;;;;67.32;21.90;;;-3.00;99.90;;;;;;4978562;28;20027;-84
2022/01/12 06:52:37;;;;;;;63.53;20.70;;;-3.00;99.90;;;;;;4980722;28;20019;-83
2022/01/12 06:55:04;;;;;;;60.40;19.15;;;-2.90;99.90;;;;;;4979439;28;20039;-83
2022/01/12 06:57:31;;;;;;;59.65;19.02;;;-2.90;99.90;;;;;;4961223;29;20031;-84
2022/01/12 06:59:57;;;;;;;49.17;17.65;;;-2.80;99.90;;;;;;4976120;28;20035;-84
2022/01/12 07:02:24;;;;;;;62.72;21.13;;;-2.70;99.90;;;;;;4976761;28;20054;-83
2022/01/12 07:04:52;;;;;;;47.53;17.98;;;-2.70;99.90;;;;;;4974917;28;20027;-86
2022/01/12 07:07:22;;;;;;;54.38;17.75;;;-2.60;99.90;;;;;;4973345;28;20035;-86
2022/01/12 07:09:51;;;;;;;56.08;18.67;;;-2.60;99.90;;;;;;4974964;28;20031;-86
2022/01/12 07:12:20;;;;;;;57.95;19.52;;;-2.50;99.90;;;;;;4975297;29;20039;-85
2022/01/12 07:14:46;;;;;;;55.63;19.10;;;-2.30;99.90;;;;;;4974116;29;20026;-84
2022/01/12 07:17:14;;;;;;;57.05;18.80;;;-2.30;99.90;;;;;;4973966;28;20078;-85
2022/01/12 07:19:40;;;;;;;49.80;17.60;;;-2.20;99.90;;;;;;4973034;29;20075;-84
2022/01/12 07:22:10;;;;;;;54.05;19.50;;;-2.10;99.90;;;;;;4973578;29;20031;-86
2022/01/12 07:24:36;;;;;;;54.03;18.52;;;-2.10;99.90;;;;;;4973568;29;20361;-85
2022/01/12 07:27:02;;;;;;;53.60;19.17;;;-2.00;99.90;;;;;;4975550;28;20027;-83
2022/01/12 07:29:27;;;;;;;49.60;17.38;;;-1.90;99.90;;;;;;4975778;28;20007;-86
2022/01/12 07:31:53;;;;;;;45.42;17.58;;;-1.90;99.90;;;;;;4974157;28;20016;-83
2022/01/12 07:34:19;;;;;;;54.72;19.02;;;-1.80;99.90;;;;;;4974968;29;20023;-84
2022/01/12 07:36:45;;;;;;;53.97;18.90;;;-1.80;99.90;;;;;;4973025;28;20028;-84
2022/01/12 07:39:11;;;;;;;47.47;17.90;;;-1.80;99.90;;;;;;4971837;28;20026;-85
2022/01/12 07:41:38;;;;;;;48.10;17.85;;;-1.80;99.90;;;;;;4964872;28;20522;-85
2022/01/12 07:44:05;;;;;;;46.10;17.30;;;-1.70;99.90;;;;;;4962441;28;20027;-84
2022/01/12 07:46:30;;;;;;;47.38;16.77;;;-1.70;99.90;;;;;;4964174;28;20023;-84
2022/01/12 07:48:57;;;;;;;49.40;16.95;;;-1.70;99.90;;;;;;4971492;28;20515;-84
2022/01/12 07:51:22;;;;;;;50.05;18.13;;;-1.70;99.90;;;;;;4962723;28;20053;-85
2022/01/12 07:53:48;;;;;;;50.10;16.88;;;-1.70;99.90;;;;;;4964055;28;21399;-84
2022/01/12 07:56:14;;;;;;;48.45;17.10;;;-1.70;99.90;;;;;;4961285;28;20064;-84
2022/01/12 07:58:40;;;;;;;50.58;18.63;;;-1.70;99.90;;;;;;4965848;28;20501;-84
2022/01/12 08:01:06;;;;;;;53.17;18.90;;;-1.70;99.90;;;;;;4964194;29;20048;-85
2022/01/12 08:03:31;;;;;;;49.60;17.48;;;-1.70;99.90;;;;;;4965898;28;20531;-85
2022/01/12 08:05:58;;;;;;;54.70;18.02;;;-1.70;99.90;;;;;;4968583;28;20437;-85
2022/01/12 08:08:23;;;;;;;49.85;18.05;;;-1.70;99.90;;;;;;4963536;28;20027;-84
2022/01/12 08:10:49;;;;;;;49.03;17.67;;;-1.60;99.90;;;;;;4965155;28;20082;-84
2022/01/12 08:13:15;;;;;;;47.97;17.08;;;-1.60;99.90;;;;;;4964021;29;20031;-85
2022/01/12 08:15:41;;;;;;;46.92;16.90;;;-1.50;99.90;;;;;;4964640;29;20027;-83
2022/01/12 08:18:07;;;;;;;46.85;16.70;;;-1.50;99.90;;;;;;4968763;28;20034;-85
2022/01/12 08:20:33;;;;;;;49.28;17.92;;;-1.50;99.90;;;;;;4969382;28;20106;-85
2022/01/12 08:22:59;;;;;;;54.30;17.40;;;-1.40;99.90;;;;;;4968311;28;20031;-85
2022/01/12 08:25:25;;;;;;;52.58;17.65;;;-1.50;99.90;;;;;;4966746;28;20042;-83
2022/01/12 08:27:51;;;;;;;48.90;17.27;;;-1.40;99.90;;;;;;4965030;28;20043;-84
2022/01/12 08:30:18;;;;;;;47.92;17.00;;;-1.50;99.90;;;;;;4956988;29;20026;-84
2022/01/12 08:32:48;;;;;;;49.78;17.70;;;-1.60;99.90;;;;;;4958533;28;20031;-84
2022/01/12 08:35:16;;;;;;;47.30;17.38;;;-1.60;99.90;;;;;;4970654;29;20019;-84
2022/01/12 08:37:43;;;;;;;48.45;16.88;;;-1.50;99.90;;;;;;4969545;28;20016;-83
2022/01/12 08:40:11;;;;;;;53.72;19.17;;;-1.50;99.90;;;;;;4970882;28;20034;-84
2022/01/12 08:42:38;;;;;;;42.10;15.75;;;-1.40;99.90;;;;;;4965994;28;20027;-83
2022/01/12 08:45:05;;;;;;;48.75;16.33;;;-1.40;99.90;;;;;;4967186;28;20057;-84
2022/01/12 08:47:31;;;;;;;44.20;17.05;;;-1.40;99.90;;;;;;4981464;28;20090;-82
2022/01/12 08:49:57;;;;;;;44.10;16.83;;;-1.30;99.90;;;;;;4976998;29;20038;-85
2022/01/12 08:52:24;;;;;;;50.25;17.20;;;-1.30;99.90;;;;;;4978976;29;20015;-84
2022/01/12 08:54:51;;;;;;;51.58;17.70;;;-1.30;99.90;;;;;;4977860;28;20035;-83
2022/01/12 08:57:17;;;;;;;48.67;16.10;;;-1.30;99.90;;;;;;4982627;28;20020;-82
2022/01/12 08:59:44;;;;;;;47.60;16.50;;;-1.20;99.90;;;;;;4971167;28;20027;-82
2022/01/12 09:02:13;;;;;;;45.95;16.92;;;-1.20;99.90;;;;;;4970895;28;20027;-83
2022/01/12 09:04:39;;;;;;;49.03;16.55;;;-1.20;99.90;;;;;;4957213;29;20047;-84
2022/01/12 09:07:05;;;;;;;48.30;16.33;;;-1.20;99.90;;;;;;4960420;28;20042;-84
2022/01/12 09:09:31;;;;;;;45.10;17.38;;;-1.20;99.90;;;;;;4960245;28;20031;-83
2022/01/12 09:11:57;;;;;;;45.10;16.85;;;-1.10;99.90;;;;;;4964061;29;20024;-85
2022/01/12 09:14:23;;;;;;;46.65;16.60;;;-1.10;99.90;;;;;;4964447;28;20360;-84
2022/01/12 09:16:54;;;;;;;49.90;16.85;;;-1.10;99.90;;;;;;4954952;28;20023;-84
2022/01/12 09:19:21;;;;;;;46.83;17.23;;;-1.10;99.90;;;;;;4957197;28;20055;-83
2022/01/12 09:21:47;;;;;;;39.25;16.77;;;-1.10;99.90;;;;;;4961517;28;20031;-84
2022/01/12 09:24:14;;;;;;;45.95;16.60;;;-1.10;99.90;;;;;;4958463;28;20554;-84
2022/01/12 09:26:40;;;;;;;41.00;15.05;;;-1.10;99.90;;;;;;4965148;28;20526;-85
2022/01/12 09:29:07;;;;;;;46.25;16.55;;;-1.10;99.90;;;;;;4970992;28;20031;-85
2022/01/12 09:31:32;;;;;;;50.50;18.00;;;-1.10;99.90;;;;;;4974277;28;20023;-84
2022/01/12 09:33:58;;;;;;;41.45;15.07;;;-1.10;99.90;;;;;;4971148;28;20020;-83
2022/01/12 09:36:24;;;;;;;38.53;15.52;;;-1.00;99.90;;;;;;4965518;29;20035;-84
2022/01/12 09:38:50;;;;;;;39.70;16.30;;;-1.10;99.90;;;;;;4979567;28;20046;-85
2022/01/12 09:41:16;;;;;;;44.67;16.38;;;-1.10;99.90;;;;;;4978968;28;20039;-86
2022/01/12 09:43:43;;;;;;;45.35;15.38;;;-1.10;99.90;;;;;;4978879;28;20026;-84
2022/01/12 09:46:10;;;;;;;40.30;15.27;;;-1.20;99.90;;;;;;4980456;28;20042;-82
2022/01/12 09:48:36;;;;;;;44.25;15.27;;;-1.20;99.90;;;;;;4980677;28;20031;-84
2022/01/12 09:51:06;;;;;;;47.22;16.65;;;-1.20;99.90;;;;;;4978290;28;20055;-83
2022/01/12 09:53:35;;;;;;;47.33;16.70;;;-1.10;99.90;;;;;;4981221;28;20054;-81
2022/01/12 09:56:30;;;;;;;42.28;15.70;;;-1.10;99.90;;;;;;4979139;28;20075;-82
2022/01/12 09:59:02;;;;;;;45.78;17.30;;;-1.00;99.90;;;;;;4963759;28;20054;-84
2022/01/12 10:01:31;;;;;;;48.95;17.35;;;-1.00;99.90;;;;;;4978533;28;20097;-84
2022/01/12 10:04:06;;;;;;;39.70;15.25;;;-1.00;99.90;;;;;;4980951;28;20019;-84
2022/01/12 10:06:39;;;;;;;49.78;17.45;;;-1.00;99.90;;;;;;4973342;28;20039;-84
2022/01/12 10:09:05;;;;;;;42.53;15.77;;;-1.00;99.90;;;;;;4981028;28;20035;-85
2022/01/12 10:11:31;;;;;;;51.92;16.65;;;-0.90;99.90;;;;;;4980615;28;20035;-84
2022/01/12 10:14:00;;;;;;;45.38;15.65;;;-0.90;99.90;;;;;;4979876;28;20016;-83
2022/01/12 10:16:26;;;;;;;43.05;15.07;;;-1.00;99.90;;;;;;4980749;28;20028;-85
2022/01/12 10:18:55;;;;;;;42.30;15.27;;;-0.90;99.90;;;;;;4980512;28;20012;-83
2022/01/12 10:21:29;;;;;;;41.47;15.75;;;-1.00;99.90;;;;;;4968674;29;20027;-85
2022/01/12 10:24:00;;;;;;;44.10;16.52;;;-0.90;99.90;;;;;;4980305;28;20091;-82
2022/01/12 10:26:45;;;;;;;41.85;15.88;;;-0.90;99.90;;;;;;4962756;29;20051;-84
2022/01/12 10:29:19;;;;;;;43.97;15.00;;;-0.80;99.90;;;;;;4977333;29;20047;-85
2022/01/12 10:31:49;;;;;;;46.50;16.30;;;-0.80;99.90;;;;;;4978232;29;20079;-86
2022/01/12 10:34:16;;;;;;;44.25;14.85;;;-0.80;99.90;;;;;;4978380;28;20035;-86
2022/01/12 10:36:45;;;;;;;43.95;15.40;;;-0.70;99.90;;;;;;4980112;28;20031;-87
2022/01/12 10:39:13;;;;;;;42.80;15.88;;;-0.70;99.90;;;;;;4978741;28;20122;-87
2022/01/12 10:41:57;;;;;;;45.63;16.17;;;-0.60;99.90;;;;;;4979636;29;20047;-86
2022/01/12 10:44:43;;;;;;;42.77;15.70;;;-0.60;99.90;;;;;;4958497;29;20059;-87
2022/01/12 10:49:37;;;;;;;46.67;16.67;;;-0.50;99.90;;;;;;5011148;23;20477;-86
2022/01/12 10:52:07;;;;;;;49.83;15.27;;;-0.50;99.90;;;;;;4992198;28;20027;-89
2022/01/12 10:54:47;;;;;;;44.88;16.48;;;-0.60;99.90;;;;;;4992935;28;20023;-86
2022/01/12 10:57:17;;;;;;;47.90;15.32;;;-0.60;99.90;;;;;;4989716;28;20038;-87
2022/01/12 10:59:47;;;;;;;43.15;15.48;;;-0.60;99.90;;;;;;4989810;28;20101;-87
2022/01/12 11:02:14;;;;;;;41.05;15.65;;;-0.60;99.90;;;;;;4991725;28;20099;-87
2022/01/12 11:04:42;;;;;;;49.25;16.75;;;-0.60;99.90;;;;;;4990492;28;20031;-87
2022/01/12 11:07:08;;;;;;;36.20;13.98;;;-0.50;99.90;;;;;;4988990;28;20119;-89
2022/01/12 11:09:34;;;;;;;50.03;14.82;;;-0.50;99.90;;;;;;4984879;28;20046;-86
2022/01/12 11:12:01;;;;;;;43.08;15.10;;;-0.40;99.90;;;;;;4993338;28;20023;-85
2022/01/12 11:14:27;;;;;;;49.05;16.02;;;-0.40;99.90;;;;;;4986935;28;20027;-86
2022/01/12 11:16:53;;;;;;;44.47;17.50;;;-0.30;99.90;;;;;;4986908;28;20023;-85
2022/01/12 11:19:20;;;;;;;38.08;15.63;;;-0.20;99.90;;;;;;4986838;28;20014;-84
2022/01/12 11:22:16;;;;;;;43.35;16.42;;;-0.20;99.90;;;;;;4984911;28;20267;-86
2022/01/12 11:24:42;;;;;;;47.00;16.42;;;-0.20;99.90;;;;;;4976637;28;20031;-87
2022/01/12 11:27:07;;;;;;;45.03;17.25;;;-0.20;99.90;;;;;;4988856;28;20026;-86
2022/01/12 11:29:34;;;;;;;45.95;16.80;;;-0.10;99.90;;;;;;4992436;28;20061;-85
2022/01/12 11:32:12;;;;;;;44.35;16.60;;;0.00;99.90;;;;;;5004134;28;20026;-86
2022/01/12 11:34:38;;;;;;;44.03;16.45;;;0.20;99.90;;;;;;4989870;28;20094;-86
2022/01/12 11:37:12;;;;;;;43.45;16.27;;;0.20;99.90;;;;;;4989404;28;20059;-85
2022/01/12 11:39:38;;;;;;;41.97;16.70;;;0.40;99.90;;;;;;4984469;28;20102;-86
2022/01/12 11:42:07;;;;;;;42.78;15.55;;;0.60;99.90;;;;;;4988350;28;20069;-86
2022/01/12 11:44:38;;;;;;;43.13;16.10;;;1.00;99.90;;;;;;4991089;28;20039;-83
2022/01/12 11:47:10;;;;;;;45.30;16.17;;;1.00;99.90;;;;;;4989700;28;20079;-85
2022/01/12 11:49:36;;;;;;;45.08;16.17;;;1.10;99.90;;;;;;4987890;28;20045;-83
2022/01/12 11:52:16;;;;;;;49.35;17.65;;;1.30;99.90;;;;;;4995046;28;20027;-84
2022/01/12 11:54:45;;;;;;;47.50;15.57;;;1.50;99.90;;;;;;5000000;28;20031;-84
2022/01/12 11:57:16;;;;;;;37.08;15.32;;;1.70;99.90;;;;;;4988705;28;20019;-85
2022/01/12 11:59:51;;;;;;;41.80;16.35;;;2.00;99.90;;;;;;4984662;28;20023;-83
2022/01/12 12:02:19;;;;;;;37.38;15.50;;;2.20;99.90;;;;;;4985287;28;20031;-86
2022/01/12 12:04:59;;;;;;;37.67;15.65;;;2.10;99.90;;;;;;4983813;28;20034;-87
2022/01/12 12:07:27;;;;;;;38.95;15.05;;;2.00;99.90;;;;;;4982844;28;20035;-84
2022/01/12 12:09:57;;;;;;;38.47;15.15;;;2.00;99.90;;;;;;4973765;28;20030;-83
2022/01/12 12:12:31;;;;;;;38.15;14.80;;;2.20;99.90;;;;;;4994130;28;20053;-83
2022/01/12 12:15:00;;;;;;;49.30;16.60;;;2.20;99.90;;;;;;4996831;28;20042;-81
2022/01/12 12:17:28;;;;;;;45.13;16.42;;;1.90;99.90;;;;;;5010876;28;20937;-82
2022/01/12 12:19:55;;;;;;;44.55;16.27;;;1.60;99.90;;;;;;4997380;28;20082;-84
2022/01/12 12:22:25;;;;;;;43.80;16.10;;;1.40;99.90;;;;;;5015407;28;20066;-85
2022/01/12 12:24:57;;;;;;;37.70;15.75;;;1.40;99.90;;;;;;4999865;28;20037;-84
2022/01/12 12:27:26;;;;;;;46.33;16.20;;;1.60;99.90;;;;;;5004124;28;20030;-82
2022/01/12 12:29:52;;;;;;;39.95;15.23;;;1.70;99.90;;;;;;5009162;28;20018;-84
2022/01/12 12:32:36;;;;;;;41.70;15.40;;;1.70;99.90;;;;;;4989004;28;20023;-86
2022/01/12 12:35:19;;;;;;;38.95;15.35;;;1.80;99.90;;;;;;4992944;28;20030;-85
2022/01/12 12:37:53;;;;;;;46.35;16.90;;;1.80;99.90;;;;;;4999848;28;20095;-84
2022/01/12 12:40:27;;;;;;;41.13;15.52;;;2.00;99.90;;;;;;5004187;28;20015;-82
2022/01/12 12:43:05;;;;;;;39.70;15.63;;;2.10;99.90;;;;;;5003966;28;20027;-83
2022/01/12 12:45:56;;;;;;;41.58;16.33;;;2.00;99.90;;;;;;5004241;28;20054;-83
2022/01/12 12:48:43;;;;;;;41.85;16.52;;;1.80;99.90;;;;;;4994867;28;20034;-85
2022/01/12 12:51:14;;;;;;;42.13;16.45;;;1.70;99.90;;;;;;4993843;28;20019;-84
2022/01/12 12:53:47;;;;;;;47.10;15.45;;;1.60;99.90;;;;;;4996032;28;20039;-86
2022/01/12 12:56:17;;;;;;;46.05;15.98;;;1.50;99.90;;;;;;5000534;28;20034;-87
2022/01/12 12:58:51;;;;;;;38.13;15.38;;;1.60;99.90;;;;;;4995198;28;20030;-86
2022/01/12 13:01:19;;;;;;;37.85;14.77;;;1.80;99.90;;;;;;4993074;28;20035;-85
2022/01/12 13:03:50;;;;;;;38.53;16.13;;;1.90;99.90;;;;;;4990241;28;20410;-87
2022/01/12 13:06:30;;;;;;;40.70;15.88;;;2.10;99.90;;;;;;4992606;28;20398;-85
2022/01/12 13:09:01;;;;;;;43.92;16.25;;;2.10;99.90;;;;;;4977857;28;20037;-83
2022/01/12 13:11:36;;;;;;;38.58;15.65;;;2.00;99.90;;;;;;4999787;28;20046;-86
2022/01/12 13:14:03;;;;;;;;;;;1.90;99.90;;;;;;4988432;28;20098;-88
2022/01/12 13:16:30;;;;;;;41.95;15.55;;;1.80;99.90;;;;;;4988916;28;19963;-88
2022/01/12 13:19:05;;;;;;;42.95;15.48;;;1.80;99.90;;;;;;4990552;28;20063;-88
2022/01/12 13:21:33;;;;;;;39.25;16.02;;;1.70;99.90;;;;;;4992663;28;20046;-85
2022/01/12 13:24:00;;;;;;;43.63;16.73;;;1.60;99.90;;;;;;4991984;28;20030;-85
2022/01/12 13:26:32;;;;;;;38.70;15.82;;;1.40;99.90;;;;;;4993993;28;20038;-86
2022/01/12 13:29:03;;;;;;;41.33;16.00;;;1.30;99.90;;;;;;4993531;28;20035;-86
2022/01/12 13:31:29;;;;;;;42.58;16.63;;;1.20;99.90;;;;;;4991055;28;20503;-87
2022/01/12 13:33:58;;;;;;;40.35;15.25;;;1.10;99.90;;;;;;4980577;28;20035;-85
2022/01/12 13:36:26;;;;;;;43.08;15.75;;;0.90;99.90;;;;;;4988926;28;20545;-87
2022/01/12 13:39:08;;;;;;;46.35;16.35;;;0.80;99.90;;;;;;4982513;28;20034;-85
2022/01/12 13:41:37;;;;;;;47.13;16.75;;;0.80;99.90;;;;;;4975186;28;20031;-87
2022/01/12 13:44:06;;;;;;;50.83;15.88;;;0.70;99.90;;;;;;4991284;28;20411;-87
2022/01/12 13:46:37;;;;;;;45.78;15.10;;;0.70;99.90;;;;;;4992056;28;20030;-87
2022/01/12 13:52:00;;;;;;;42.00;15.20;;;0.60;99.90;;;;;;4988358;28;20037;-86
2022/01/12 13:54:38;;;;;;;47.65;17.50;;;0.60;99.90;;;;;;4985025;28;20054;-87
2022/01/12 13:57:05;;;;;;;41.42;16.75;;;0.60;99.90;;;;;;4989004;28;20127;-86
2022/01/12 13:59:42;;;;;;;40.92;15.18;;;0.60;99.90;;;;;;4986328;28;20022;-86
2022/01/12 14:02:13;;;;;;;51.03;16.92;;;0.60;99.90;;;;;;4992299;28;20054;-87
2022/01/12 14:04:43;;;;;;;40.05;15.55;;;0.60;99.90;;;;;;4986719;28;20026;-87
2022/01/12 14:07:20;;;;;;;47.25;14.77;;;0.50;99.90;;;;;;4994827;28;20046;-86